Terminal Aerodrome Forecast
Issued by NWS

Home | Current Version | Previous Version | Text Only | Print | Product List | Glossary On
Versions: 1 2 3 4 5 6 7 8 9 10 11 12 13 14 15 16 17 18 19 20
000
FTUS42 KMLB 260530
TAFSFB
TAF
KSFB 260530Z 2606/2706 18004KT P6SM FEW040 SCT070 BKN120
     FM261300 19006KT P6SM SCT030 SCT120
     FM261900 13006KT P6SM VCTS BKN035CB
      TEMPO 2620/2623 3SM TSRA BKN030CB
     FM270000 VRB03KT P6SM VCSH SCT040 BKN070=

USA.gov is the U.S. government's official web portal to all federal, state and local government web resources and services.